THY53R LSZH-LYBE
Flight info
| Callsign | THY53R |
|---|---|
| Flight time | 1h 17m |
| Altitude | 35000 |
| Route | DEGES2R DEGES Z2 OSDOV/N0477F370 Z2 XEBIX/N0482F350 Z2 TUNUM Z204 GEDSO/N0476F390 DCT LUMUS DCT LAKIK DCT RIGMU RIGMU2D |
| Aircraft | B77W/H-SDE1E2E3FGHIJ2J3J4J5M1RWXY/LB1D1 |
Departure
| Time | 2026-05-01 09:41 |
|---|---|
| Airport | Zürich Airport (LSZH) |
Arrival
| Time | 2026-05-01 10:59 |
|---|---|
| Airport | Belgrade Nikola Tesla Airport (LYBE) |
| Time | Latitude | Longitude | Altitude | Speed | Heading |
|---|---|---|---|---|---|
| 2026-05-01 09:25 | 47.46067 | 8.55242 | 1400 ft | 0 kts | 6° |
| 2026-05-01 09:30 | 47.46059 | 8.55241 | 1408 ft | 2 kts | 4° |
| 2026-05-01 09:31 | 47.46042 | 8.55239 | 1403 ft | 2 kts | 1° |
| 2026-05-01 09:31 | 47.46026 | 8.55239 | 1407 ft | 2 kts | 356° |
| 2026-05-01 09:31 | 47.45994 | 8.55250 | 1410 ft | 2 kts | 324° |
| 2026-05-01 09:32 | 47.45983 | 8.55268 | 1411 ft | 2 kts | 288° |
| 2026-05-01 09:32 | 47.45980 | 8.55286 | 1411 ft | 0 kts | 276° |
| 2026-05-01 09:35 | 47.45984 | 8.55222 | 1410 ft | 9 kts | 275° |
| 2026-05-01 09:35 | 47.45996 | 8.55054 | 1404 ft | 19 kts | 274° |
| 2026-05-01 09:36 | 47.46063 | 8.54910 | 1405 ft | 19 kts | 333° |
| 2026-05-01 09:36 | 47.46182 | 8.54828 | 1396 ft | 19 kts | 335° |
| 2026-05-01 09:36 | 47.46301 | 8.54748 | 1401 ft | 19 kts | 335° |
| 2026-05-01 09:36 | 47.46423 | 8.54663 | 1395 ft | 19 kts | 335° |
| 2026-05-01 09:37 | 47.46546 | 8.54580 | 1402 ft | 19 kts | 335° |
| 2026-05-01 09:37 | 47.46800 | 8.54414 | 1384 ft | 21 kts | 340° |
| 2026-05-01 09:37 | 47.46931 | 8.54327 | 1385 ft | 21 kts | 334° |
| 2026-05-01 09:38 | 47.47196 | 8.54146 | 1401 ft | 21 kts | 335° |
| 2026-05-01 09:38 | 47.47328 | 8.54054 | 1405 ft | 21 kts | 335° |
| 2026-05-01 09:38 | 47.47460 | 8.53964 | 1404 ft | 21 kts | 335° |
| 2026-05-01 09:39 | 47.47609 | 8.53807 | 1407 ft | 2 kts | 274° |
| 2026-05-01 09:39 | 47.47609 | 8.53806 | 1407 ft | 0 kts | 274° |
| 2026-05-01 09:39 | 47.47609 | 8.53802 | 1408 ft | 1 kts | 274° |
| 2026-05-01 09:40 | 47.47609 | 8.53779 | 1406 ft | 4 kts | 266° |
| 2026-05-01 09:40 | 47.47565 | 8.53645 | 1408 ft | 10 kts | 219° |
| 2026-05-01 09:40 | 47.47493 | 8.53648 | 1408 ft | 8 kts | 154° |
| 2026-05-01 09:41 | 47.47438 | 8.53686 | 1407 ft | 26 kts | 154° |
| 2026-05-01 09:41 | 47.45883 | 8.54768 | 1555 ft | 205 kts | 154° |
| 2026-05-01 09:41 | 47.44580 | 8.55691 | 2800 ft | 207 kts | 154° |
| 2026-05-01 09:42 | 47.43327 | 8.56850 | 3621 ft | 227 kts | 134° |
| 2026-05-01 09:42 | 47.42489 | 8.58986 | 4069 ft | 259 kts | 104° |
| 2026-05-01 09:42 | 47.43178 | 8.64221 | 6298 ft | 269 kts | 53° |
| 2026-05-01 09:43 | 47.45741 | 8.68279 | 8336 ft | 274 kts | 55° |
| 2026-05-01 09:43 | 47.46571 | 8.70808 | 9288 ft | 277 kts | 81° |
| 2026-05-01 09:43 | 47.46622 | 8.73619 | 10228 ft | 279 kts | 91° |
| 2026-05-01 09:44 | 47.46642 | 8.79864 | 11075 ft | 335 kts | 88° |
| 2026-05-01 09:44 | 47.46645 | 8.83439 | 11434 ft | 358 kts | 96° |
| 2026-05-01 09:44 | 47.46183 | 8.87112 | 12272 ft | 369 kts | 102° |
| 2026-05-01 09:45 | 47.45574 | 8.90836 | 13444 ft | 374 kts | 103° |
| 2026-05-01 09:45 | 47.44408 | 8.98331 | 15678 ft | 383 kts | 101° |
| 2026-05-01 09:45 | 47.43844 | 9.02221 | 16725 ft | 389 kts | 101° |
| 2026-05-01 09:46 | 47.43289 | 9.06153 | 17743 ft | 395 kts | 101° |
| 2026-05-01 09:46 | 47.42728 | 9.10158 | 18754 ft | 400 kts | 100° |
| 2026-05-01 09:46 | 47.42155 | 9.14208 | 19623 ft | 407 kts | 101° |
| 2026-05-01 09:46 | 47.41587 | 9.18327 | 20441 ft | 411 kts | 97° |
| 2026-05-01 09:47 | 47.41530 | 9.22563 | 21094 ft | 417 kts | 79° |
| 2026-05-01 09:47 | 47.42115 | 9.26248 | 21708 ft | 420 kts | 75° |
| 2026-05-01 09:47 | 47.42815 | 9.30424 | 22482 ft | 426 kts | 75° |
| 2026-05-01 09:47 | 47.43488 | 9.34661 | 23369 ft | 430 kts | 76° |
| 2026-05-01 09:48 | 47.44152 | 9.39003 | 24162 ft | 435 kts | 76° |
| 2026-05-01 09:48 | 47.44809 | 9.43384 | 24860 ft | 439 kts | 76° |
| 2026-05-01 09:48 | 47.45470 | 9.47813 | 25572 ft | 443 kts | 76° |
| 2026-05-01 09:48 | 47.46137 | 9.52276 | 26262 ft | 447 kts | 76° |
| 2026-05-01 09:49 | 47.46735 | 9.56796 | 26914 ft | 452 kts | 80° |
| 2026-05-01 09:49 | 47.47031 | 9.61451 | 27530 ft | 458 kts | 85° |
| 2026-05-01 09:49 | 47.47041 | 9.66189 | 28135 ft | 463 kts | 91° |
| 2026-05-01 09:49 | 47.46791 | 9.70959 | 28723 ft | 468 kts | 92° |
| 2026-05-01 09:50 | 47.46497 | 9.75767 | 29273 ft | 471 kts | 92° |
| 2026-05-01 09:50 | 47.46196 | 9.80616 | 29767 ft | 475 kts | 92° |
| 2026-05-01 09:50 | 47.45901 | 9.85494 | 30253 ft | 478 kts | 92° |
| 2026-05-01 09:50 | 47.45614 | 9.90399 | 30786 ft | 478 kts | 92° |
| 2026-05-01 09:51 | 47.45333 | 9.95279 | 31431 ft | 475 kts | 91° |
| 2026-05-01 09:51 | 47.45055 | 10.00123 | 32113 ft | 471 kts | 91° |
| 2026-05-01 09:51 | 47.44780 | 10.04931 | 32720 ft | 468 kts | 91° |
| 2026-05-01 09:51 | 47.44507 | 10.09658 | 33326 ft | 466 kts | 91° |
| 2026-05-01 09:52 | 47.44229 | 10.14421 | 33915 ft | 464 kts | 91° |
| 2026-05-01 09:52 | 47.44134 | 10.16021 | 34099 ft | 464 kts | 91° |
| 2026-05-01 09:52 | 47.43808 | 10.20089 | 34518 ft | 465 kts | 95° |
| 2026-05-01 09:53 | 47.43203 | 10.24774 | 34962 ft | 465 kts | 97° |
| 2026-05-01 09:53 | 47.42548 | 10.29455 | 35306 ft | 467 kts | 98° |
| 2026-05-01 09:53 | 47.41235 | 10.38875 | 35303 ft | 466 kts | 97° |
| 2026-05-01 09:54 | 47.39965 | 10.48232 | 35311 ft | 465 kts | 97° |
| 2026-05-01 09:54 | 47.38683 | 10.57588 | 35293 ft | 465 kts | 97° |
| 2026-05-01 09:55 | 47.37383 | 10.66941 | 35309 ft | 465 kts | 97° |
| 2026-05-01 09:55 | 47.36079 | 10.76280 | 35309 ft | 465 kts | 97° |
| 2026-05-01 09:56 | 47.34769 | 10.85613 | 35320 ft | 465 kts | 97° |
| 2026-05-01 09:56 | 47.33561 | 10.94178 | 35341 ft | 465 kts | 97° |
| 2026-05-01 09:57 | 47.32241 | 11.03481 | 35348 ft | 463 kts | 97° |
| 2026-05-01 09:57 | 47.30915 | 11.12761 | 35349 ft | 463 kts | 97° |
| 2026-05-01 09:58 | 47.29591 | 11.21976 | 35349 ft | 462 kts | 97° |
| 2026-05-01 09:58 | 47.28253 | 11.31242 | 35354 ft | 463 kts | 97° |
| 2026-05-01 09:59 | 47.27134 | 11.38946 | 35362 ft | 462 kts | 97° |
| 2026-05-01 09:59 | 47.25516 | 11.48128 | 35349 ft | 468 kts | 105° |
| 2026-05-01 10:00 | 47.22629 | 11.56794 | 35344 ft | 476 kts | 117° |
| 2026-05-01 10:00 | 47.18815 | 11.64774 | 35360 ft | 477 kts | 120° |
| 2026-05-01 10:01 | 47.14960 | 11.72681 | 35359 ft | 476 kts | 120° |
| 2026-05-01 10:01 | 47.11153 | 11.80631 | 35359 ft | 475 kts | 119° |
| 2026-05-01 10:02 | 47.07937 | 11.88972 | 35368 ft | 465 kts | 108° |
| 2026-05-01 10:02 | 47.05791 | 11.97872 | 35333 ft | 462 kts | 101° |
| 2026-05-01 10:03 | 47.03979 | 12.06926 | 35350 ft | 463 kts | 101° |
| 2026-05-01 10:03 | 47.02153 | 12.15980 | 35358 ft | 463 kts | 101° |
| 2026-05-01 10:04 | 47.00311 | 12.24963 | 35361 ft | 463 kts | 101° |
| 2026-05-01 10:04 | 46.98439 | 12.33993 | 35373 ft | 463 kts | 101° |
| 2026-05-01 10:05 | 46.96556 | 12.43034 | 35369 ft | 463 kts | 101° |
| 2026-05-01 10:05 | 46.94670 | 12.52044 | 35359 ft | 463 kts | 101° |
| 2026-05-01 10:06 | 46.92781 | 12.61050 | 35348 ft | 464 kts | 102° |
| 2026-05-01 10:06 | 46.90877 | 12.70072 | 35332 ft | 463 kts | 101° |
| 2026-05-01 10:07 | 46.88970 | 12.79060 | 35334 ft | 462 kts | 101° |
| 2026-05-01 10:07 | 46.87060 | 12.88023 | 35341 ft | 460 kts | 101° |
| 2026-05-01 10:08 | 46.84201 | 13.01384 | 35368 ft | 460 kts | 102° |
| 2026-05-01 10:09 | 46.82290 | 13.10277 | 35339 ft | 463 kts | 102° |
| 2026-05-01 10:09 | 46.80352 | 13.19254 | 35350 ft | 464 kts | 102° |
| 2026-05-01 10:10 | 46.78404 | 13.28228 | 35352 ft | 464 kts | 102° |
| 2026-05-01 10:10 | 46.75469 | 13.41666 | 35364 ft | 463 kts | 102° |
| 2026-05-01 10:11 | 46.73505 | 13.50611 | 35370 ft | 462 kts | 102° |
| 2026-05-01 10:11 | 46.71543 | 13.59522 | 35373 ft | 462 kts | 102° |
| 2026-05-01 10:12 | 46.69572 | 13.68433 | 35367 ft | 462 kts | 102° |
| 2026-05-01 10:13 | 46.66604 | 13.81779 | 35410 ft | 460 kts | 102° |
| 2026-05-01 10:13 | 46.64633 | 13.90595 | 35387 ft | 462 kts | 102° |
| 2026-05-01 10:14 | 46.61632 | 14.03951 | 35409 ft | 463 kts | 102° |
| 2026-05-01 10:14 | 46.59620 | 14.12863 | 35404 ft | 464 kts | 102° |
| 2026-05-01 10:15 | 46.57588 | 14.21773 | 35413 ft | 465 kts | 103° |
| 2026-05-01 10:15 | 46.55529 | 14.30690 | 35408 ft | 465 kts | 103° |
| 2026-05-01 10:16 | 46.53465 | 14.39597 | 35417 ft | 464 kts | 103° |
| 2026-05-01 10:17 | 46.50377 | 14.52877 | 35413 ft | 465 kts | 103° |
| 2026-05-01 10:17 | 46.47263 | 14.66191 | 35409 ft | 463 kts | 103° |
| 2026-05-01 10:18 | 46.44145 | 14.79437 | 35392 ft | 463 kts | 103° |
| 2026-05-01 10:19 | 46.42054 | 14.88278 | 35381 ft | 464 kts | 103° |
| 2026-05-01 10:19 | 46.39954 | 14.97117 | 35382 ft | 464 kts | 103° |
| 2026-05-01 10:20 | 46.36794 | 15.10369 | 35387 ft | 464 kts | 103° |
| 2026-05-01 10:20 | 46.34679 | 15.19182 | 35392 ft | 464 kts | 103° |
| 2026-05-01 10:21 | 46.31490 | 15.32419 | 35395 ft | 464 kts | 103° |
| 2026-05-01 10:22 | 46.28288 | 15.45623 | 35394 ft | 464 kts | 104° |
| 2026-05-01 10:23 | 46.25077 | 15.58790 | 35401 ft | 465 kts | 104° |
| 2026-05-01 10:23 | 46.21829 | 15.72030 | 35403 ft | 467 kts | 104° |
| 2026-05-01 10:24 | 46.17457 | 15.89728 | 35396 ft | 468 kts | 104° |
| 2026-05-01 10:25 | 46.13352 | 16.06220 | 35396 ft | 470 kts | 105° |
| 2026-05-01 10:26 | 46.11504 | 16.13602 | 35386 ft | 470 kts | 105° |
| 2026-05-01 10:27 | 46.07056 | 16.31283 | 35388 ft | 471 kts | 105° |
| 2026-05-01 10:28 | 46.03685 | 16.44598 | 35378 ft | 473 kts | 105° |
| 2026-05-01 10:28 | 46.00280 | 16.57961 | 35391 ft | 475 kts | 105° |
| 2026-05-01 10:29 | 45.96853 | 16.71335 | 35388 ft | 476 kts | 106° |
| 2026-05-01 10:30 | 45.92237 | 16.89222 | 35389 ft | 478 kts | 106° |
| 2026-05-01 10:31 | 45.87577 | 17.07153 | 35387 ft | 480 kts | 106° |
| 2026-05-01 10:32 | 45.84063 | 17.20578 | 35382 ft | 481 kts | 107° |
| 2026-05-01 10:33 | 45.79318 | 17.38585 | 35389 ft | 483 kts | 107° |
| 2026-05-01 10:34 | 45.72421 | 17.64517 | 35387 ft | 486 kts | 107° |
| 2026-05-01 10:34 | 45.67600 | 17.82483 | 35369 ft | 487 kts | 107° |
| 2026-05-01 10:35 | 45.60210 | 18.09628 | 35372 ft | 490 kts | 110° |
| 2026-05-01 10:35 | 45.53697 | 18.26828 | 35373 ft | 494 kts | 116° |
| 2026-05-01 10:36 | 45.43669 | 18.52601 | 35360 ft | 496 kts | 116° |
| 2026-05-01 10:37 | 45.37002 | 18.69701 | 35352 ft | 498 kts | 116° |
| 2026-05-01 10:37 | 45.29580 | 18.88598 | 35339 ft | 500 kts | 117° |
| 2026-05-01 10:38 | 45.27860 | 18.92965 | 34470 ft | 513 kts | 117° |
| 2026-05-01 10:38 | 45.26112 | 18.97392 | 33446 ft | 514 kts | 116° |
| 2026-05-01 10:38 | 45.24364 | 19.01807 | 32420 ft | 512 kts | 116° |
| 2026-05-01 10:38 | 45.22623 | 19.06197 | 31379 ft | 510 kts | 116° |
| 2026-05-01 10:39 | 45.20883 | 19.10578 | 30505 ft | 506 kts | 116° |
| 2026-05-01 10:39 | 45.19164 | 19.14897 | 29497 ft | 500 kts | 116° |
| 2026-05-01 10:39 | 45.17459 | 19.19177 | 28672 ft | 492 kts | 116° |
| 2026-05-01 10:39 | 45.15787 | 19.23370 | 27925 ft | 485 kts | 116° |
| 2026-05-01 10:40 | 45.14142 | 19.27492 | 27198 ft | 479 kts | 116° |
| 2026-05-01 10:40 | 45.12508 | 19.31578 | 26443 ft | 473 kts | 116° |
| 2026-05-01 10:40 | 45.10896 | 19.35607 | 25722 ft | 469 kts | 116° |
| 2026-05-01 10:40 | 45.09293 | 19.39608 | 25016 ft | 464 kts | 117° |
| 2026-05-01 10:41 | 45.07716 | 19.43539 | 24317 ft | 460 kts | 117° |
| 2026-05-01 10:41 | 45.06130 | 19.47484 | 23561 ft | 457 kts | 117° |
| 2026-05-01 10:41 | 45.03013 | 19.55221 | 22088 ft | 447 kts | 117° |
| 2026-05-01 10:42 | 45.01506 | 19.58955 | 21400 ft | 442 kts | 117° |
| 2026-05-01 10:42 | 44.99999 | 19.62678 | 20725 ft | 438 kts | 117° |
| 2026-05-01 10:42 | 44.98463 | 19.66406 | 20041 ft | 434 kts | 118° |
| 2026-05-01 10:42 | 44.96885 | 19.70033 | 19395 ft | 431 kts | 119° |
| 2026-05-01 10:43 | 44.95303 | 19.73606 | 18739 ft | 428 kts | 119° |
| 2026-05-01 10:43 | 44.93734 | 19.77156 | 18013 ft | 425 kts | 119° |
| 2026-05-01 10:43 | 44.92687 | 19.79544 | 17576 ft | 421 kts | 118° |
| 2026-05-01 10:43 | 44.91814 | 19.81541 | 17177 ft | 420 kts | 118° |
| 2026-05-01 10:44 | 44.90291 | 19.85024 | 16584 ft | 415 kts | 118° |
| 2026-05-01 10:44 | 44.88780 | 19.88476 | 15966 ft | 411 kts | 118° |
| 2026-05-01 10:44 | 44.87281 | 19.91895 | 15354 ft | 407 kts | 118° |
| 2026-05-01 10:44 | 44.85792 | 19.95283 | 14764 ft | 404 kts | 118° |
| 2026-05-01 10:45 | 44.84819 | 19.97496 | 14445 ft | 400 kts | 118° |
| 2026-05-01 10:45 | 44.83364 | 20.00802 | 13946 ft | 393 kts | 117° |
| 2026-05-01 10:45 | 44.81954 | 20.04008 | 13413 ft | 387 kts | 118° |
| 2026-05-01 10:45 | 44.80074 | 20.08286 | 12291 ft | 390 kts | 118° |
| 2026-05-01 10:46 | 44.79108 | 20.10478 | 11961 ft | 385 kts | 118° |
| 2026-05-01 10:46 | 44.77726 | 20.13608 | 11557 ft | 377 kts | 119° |
| 2026-05-01 10:46 | 44.76373 | 20.16662 | 11320 ft | 345 kts | 119° |
| 2026-05-01 10:46 | 44.75163 | 20.19387 | 11073 ft | 312 kts | 118° |
| 2026-05-01 10:47 | 44.74073 | 20.21852 | 10706 ft | 293 kts | 118° |
| 2026-05-01 10:47 | 44.72999 | 20.24285 | 10435 ft | 291 kts | 119° |
| 2026-05-01 10:47 | 44.71938 | 20.26679 | 10231 ft | 286 kts | 119° |
| 2026-05-01 10:47 | 44.70900 | 20.29018 | 10074 ft | 277 kts | 119° |
| 2026-05-01 10:48 | 44.69894 | 20.31282 | 9925 ft | 270 kts | 119° |
| 2026-05-01 10:48 | 44.68893 | 20.33537 | 9593 ft | 273 kts | 119° |
| 2026-05-01 10:48 | 44.67896 | 20.35779 | 9166 ft | 270 kts | 119° |
| 2026-05-01 10:48 | 44.66895 | 20.38032 | 8778 ft | 275 kts | 119° |
| 2026-05-01 10:49 | 44.65859 | 20.40354 | 8437 ft | 284 kts | 120° |
| 2026-05-01 10:49 | 44.64803 | 20.42720 | 8025 ft | 282 kts | 120° |
| 2026-05-01 10:49 | 44.63787 | 20.44992 | 7603 ft | 268 kts | 120° |
| 2026-05-01 10:49 | 44.62814 | 20.47169 | 7166 ft | 259 kts | 120° |
| 2026-05-01 10:50 | 44.61870 | 20.49281 | 6682 ft | 253 kts | 119° |
| 2026-05-01 10:50 | 44.60921 | 20.51406 | 6194 ft | 263 kts | 119° |
| 2026-05-01 10:50 | 44.59929 | 20.53621 | 5677 ft | 272 kts | 120° |
| 2026-05-01 10:50 | 44.58914 | 20.55898 | 5186 ft | 276 kts | 118° |
| 2026-05-01 10:51 | 44.58362 | 20.58344 | 4587 ft | 257 kts | 85° |
| 2026-05-01 10:51 | 44.58889 | 20.60604 | 4064 ft | 239 kts | 49° |
| 2026-05-01 10:51 | 44.60212 | 20.61829 | 3548 ft | 226 kts | 9° |
| 2026-05-01 10:51 | 44.61709 | 20.61551 | 3335 ft | 221 kts | 334° |
| 2026-05-01 10:52 | 44.63085 | 20.60662 | 3164 ft | 220 kts | 352° |
| 2026-05-01 10:52 | 44.64597 | 20.60406 | 3169 ft | 226 kts | 341° |
| 2026-05-01 10:52 | 44.65878 | 20.59124 | 3181 ft | 229 kts | 317° |
| 2026-05-01 10:52 | 44.67062 | 20.57650 | 3179 ft | 226 kts | 322° |
| 2026-05-01 10:53 | 44.68291 | 20.56361 | 3196 ft | 216 kts | 326° |
| 2026-05-01 10:53 | 44.69478 | 20.55236 | 3198 ft | 199 kts | 328° |
| 2026-05-01 10:53 | 44.70608 | 20.54212 | 3200 ft | 185 kts | 328° |
| 2026-05-01 10:53 | 44.71624 | 20.53224 | 3194 ft | 169 kts | 316° |
| 2026-05-01 10:54 | 44.72327 | 20.51781 | 3175 ft | 182 kts | 302° |
| 2026-05-01 10:54 | 44.72984 | 20.50305 | 3184 ft | 175 kts | 308° |
| 2026-05-01 10:54 | 44.73616 | 20.48891 | 3197 ft | 174 kts | 303° |
| 2026-05-01 10:54 | 44.74275 | 20.47419 | 3178 ft | 177 kts | 306° |
| 2026-05-01 10:55 | 44.74893 | 20.46047 | 3201 ft | 157 kts | 309° |
| 2026-05-01 10:55 | 44.75464 | 20.44810 | 3139 ft | 151 kts | 302° |
| 2026-05-01 10:55 | 44.76003 | 20.43528 | 2746 ft | 149 kts | 303° |
| 2026-05-01 10:55 | 44.76505 | 20.42334 | 2530 ft | 137 kts | 302° |
| 2026-05-01 10:56 | 44.77018 | 20.41196 | 2454 ft | 142 kts | 306° |
| 2026-05-01 10:56 | 44.77577 | 20.40015 | 2124 ft | 147 kts | 305° |
| 2026-05-01 10:56 | 44.78091 | 20.38835 | 1818 ft | 136 kts | 303° |
| 2026-05-01 10:56 | 44.78596 | 20.37706 | 1519 ft | 137 kts | 305° |
| 2026-05-01 10:57 | 44.78909 | 20.36997 | 1338 ft | 138 kts | 304° |
| 2026-05-01 10:57 | 44.78945 | 20.36919 | 1336 ft | 138 kts | 305° |
| 2026-05-01 10:57 | 44.78997 | 20.36805 | 1289 ft | 139 kts | 305° |
| 2026-05-01 10:57 | 44.79385 | 20.35935 | 1078 ft | 143 kts | 306° |
| 2026-05-01 10:58 | 44.79903 | 20.34782 | 819 ft | 147 kts | 304° |
| 2026-05-01 10:58 | 44.80442 | 20.33595 | 523 ft | 143 kts | 304° |
| 2026-05-01 10:58 | 44.80965 | 20.32420 | 360 ft | 142 kts | 303° |
| 2026-05-01 10:58 | 44.81424 | 20.31394 | 311 ft | 128 kts | 302° |
| 2026-05-01 10:59 | 44.81821 | 20.30511 | 314 ft | 84 kts | 302° |
| 2026-05-01 10:59 | 44.82050 | 20.29997 | 313 ft | 40 kts | 303° |
| 2026-05-01 10:59 | 44.82163 | 20.29740 | 314 ft | 30 kts | 302° |
| 2026-05-01 10:59 | 44.82181 | 20.29603 | 314 ft | 13 kts | 230° |
| 2026-05-01 11:00 | 44.82118 | 20.29544 | 314 ft | 11 kts | 213° |
| 2026-05-01 11:00 | 44.82081 | 20.29487 | 312 ft | 8 kts | 253° |
| 2026-05-01 11:00 | 44.82104 | 20.29418 | 312 ft | 8 kts | 306° |
| 2026-05-01 11:00 | 44.82131 | 20.29361 | 315 ft | 7 kts | 304° |
| 2026-05-01 11:01 | 44.82155 | 20.29296 | 314 ft | 7 kts | 273° |
| 2026-05-01 11:01 | 44.82121 | 20.29249 | 313 ft | 6 kts | 211° |
| 2026-05-01 11:01 | 44.82112 | 20.29241 | 315 ft | 2 kts | 212° |
| 2026-05-01 11:01 | 44.82104 | 20.29234 | 314 ft | 0 kts | 212° |